Latest Coastal Weather Observations for Portland Harbour

IDS60701

Issued at 2:31 pm CDT Saturday 31 January 2015 (issued every 10 minutes, with the page automatically refreshed every 10 minutes)

About coastal observations | Map of coastal stations | Coastal observations for SA | Marine services | Other Formats
Station Details ID: 090192 Name: PORTLAND NTC AWS Lat: -38.34 Lon: 141.61 Height: 0.0 m
Data from the previous 72 hours. | See also: Recent months for locations in South Australia
Date/Time
CDT
Temp

°C
Wind Pressure Rain
since 9am
mm
Weather Cloud Vis
km
Sea
Height
m
Swell
Dir
 
Speed
knots
Gust
knots
hPa Trend Height
m
Period
s
Dir
31/02:30pm 16.0 S 18 24 1016.0 - - - - - - - - -
31/02:00pm 16.7 S 17 22 1015.9 - - - - - - - - -
31/01:30pm 16.0 SSW 15 22 1016.2 - - - - - - - - -
31/01:00pm 16.0 S 17 23 1016.1 - - - - - - - - -
31/12:30pm 16.2 S 20 27 1016.0 - - - - - - - - -
31/12:00pm 16.0 S 16 21 1016.4 - - - - - - - - -
31/11:30am 15.9 S 16 22 1016.5 - - - - - - - - -
31/11:00am 15.8 S 15 20 1016.4 - - - - - - - - -
31/10:30am 16.1 SSE 15 23 1016.3 - - - - - - - - -
31/10:00am 15.8 SSE 15 21 1016.2 - - - - - - - - -
31/09:30am 15.8 SSE 18 25 1016.0 - - - - - - - - -
31/09:26am 15.9 SSE 15 25 1015.9 - - - - - - - - -
31/09:00am 16.1 SSE 14 21 1015.8 - - - - - - - - -
31/08:30am 16.1 SSE 15 22 1015.4 - - - - - - - - -
31/08:00am 16.2 SSE 14 21 1015.0 - - - - - - - - -
31/07:30am 15.8 SSE 15 21 1014.9 - - - - - - - - -
31/07:05am 16.0 SSE 16 27 1014.8 - - - - - - - - -
31/07:00am 16.2 SSE 14 20 1014.8 - - - - - - - - -
31/06:30am 16.1 SSE 18 25 1014.7 - - - - - - - - -
31/06:00am 16.1 SE 19 25 1014.6 - - - - - - - - -
31/05:30am 16.2 SSE 15 22 1015.0 - - - - - - - - -
31/05:00am 15.8 SSE 15 25 1014.9 - - - - - - - - -
31/04:58am 15.8 SSE 15 25 1014.9 - - - - - - - - -
31/04:30am 16.1 SSE 14 21 1014.9 - - - - - - - - -
31/04:12am 16.2 SSE 15 26 1014.8 - - - - - - - - -
31/04:00am 15.8 SSE 14 22 1014.7 - - - - - - - - -
31/03:30am 15.9 SSE 13 19 1014.7 - - - - - - - - -
31/03:00am 15.9 SE 14 21 1014.6 - - - - - - - - -
31/02:30am 15.9 SSE 16 25 1014.8 - - - - - - - - -
31/02:29am 15.9 SSE 15 25 1014.8 - - - - - - - - -
31/02:00am 15.9 S 14 18 1015.0 - - - - - - - - -
31/01:30am 15.6 S 12 19 1015.4 - - - - - - - - -
31/01:00am 15.7 SSE 15 22 1015.7 - - - - - - - - -
31/12:30am 16.0 SSE 14 20 1015.7 - - - - - - - - -
31/12:00am 16.3 SSE 15 20 1015.7 - - - - - - - - -
 
Date/Time
CDT
Temp

°C
Wind Pressure Rain
since 9am
mm
Weather Cloud Vis
km
Sea
Height
m
Swell
Dir
 
Speed
knots
Gust
knots
hPa Trend Height
m
Period
s
Dir
30/11:30pm 16.1 SSE 14 20 1016.1 - - - - - - - - -
30/11:00pm 16.3 SSE 11 18 1016.4 - - - - - - - - -
30/10:30pm 16.3 S 14 20 1016.3 - - - - - - - - -
30/10:00pm 16.5 SSE 14 24 1016.4 - - - - - - - - -
30/09:30pm 16.3 SSE 12 20 1016.5 - - - - - - - - -
30/09:00pm 16.5 SSE 16 21 1016.3 - - - - - - - - -
30/08:30pm 16.4 SSE 12 18 1016.3 - - - - - - - - -
30/08:00pm 16.6 SSE 16 22 1016.1 - - - - - - - - -
30/07:30pm 16.8 SE 18 23 1015.9 - - - - - - - - -
30/07:00pm 17.0 SSE 16 20 1015.8 - - - - - - - - -
30/06:30pm 16.8 SSE 14 20 1015.9 - - - - - - - - -
30/06:00pm 16.7 SE 14 19 1015.8 - - - - - - - - -
30/05:30pm 17.2 SSE 11 17 1016.1 - - - - - - - - -
30/05:00pm 16.5 SSE 13 19 1016.4 - - - - - - - - -
30/04:30pm 16.6 SSE 13 20 1016.3 - - - - - - - - -
30/04:00pm 16.9 SSE 11 17 1016.4 - - - - - - - - -
30/03:30pm 16.5 SSE 13 20 1016.7 - - - - - - - - -
30/03:00pm 17.2 SSE 12 18 1017.0 - - - - - - - - -
30/02:30pm 17.2 S 12 19 1017.3 - - - - - - - - -
30/02:00pm 16.8 SSE 14 19 1017.6 - - - - - - - - -
30/01:30pm 16.4 SSE 15 21 1017.8 - - - - - - - - -
30/01:00pm 16.6 SSE 13 18 1018.1 - - - - - - - - -
30/12:30pm 16.8 SSE 12 15 1018.2 - - - - - - - - -
30/12:00pm 17.0 SSE 11 17 1018.5 - - - - - - - - -
30/11:30am 17.0 SSE 11 16 1018.5 - - - - - - - - -
30/11:00am 16.8 SSE 11 19 1018.7 - - - - - - - - -
30/10:30am 16.6 SSE 12 19 1018.8 - - - - - - - - -
30/10:00am 17.0 SSE 10 13 1018.8 - - - - - - - - -
30/09:30am 16.9 SSE 10 15 1018.8 - - - - - - - - -
30/09:00am 17.0 S 9 12 1019.0 - - - - - - - - -
30/08:30am 16.6 SSE 10 14 1018.9 - - - - - - - - -
30/08:00am 16.6 SSE 9 13 1018.8 - - - - - - - - -
30/07:30am 16.2 S 7 10 1018.6 - - - - - - - - -
30/07:00am 16.0 SSE 6 9 1018.4 - - - - - - - - -
30/06:30am 15.7 S 5 8 1018.2 - - - - - - - - -
30/06:00am 15.8 SSE 8 11 1018.1 - - - - - - - - -
30/05:30am 16.0 SSE 9 11 1017.8 - - - - - - - - -
30/05:00am 15.8 SSE 9 12 1017.7 - - - - - - - - -
30/04:30am 16.0 SSE 10 13 1017.8 - - - - - - - - -
30/04:00am 15.8 SSE 11 14 1017.9 - - - - - - - - -
30/03:30am 16.0 SE 9 13 1018.0 - - - - - - - - -
30/03:00am 15.9 SSE 10 14 1018.3 - - - - - - - - -
30/02:30am 15.9 SE 11 14 1018.6 - - - - - - - - -
30/02:00am 15.9 SE 12 16 1018.7 - - - - - - - - -
30/01:30am 15.9 SE 12 15 1019.1 - - - - - - - - -
30/01:00am 15.9 SE 11 15 1019.3 - - - - - - - - -
30/12:30am 16.0 SE 12 16 1019.5 - - - - - - - - -
30/12:00am 16.0 SSE 13 16 1019.7 - - - - - - - - -
 
Date/Time
CDT
Temp

°C
Wind Pressure Rain
since 9am
mm
Weather Cloud Vis
km
Sea
Height
m
Swell
Dir
 
Speed
knots
Gust
knots
hPa Trend Height
m
Period
s
Dir
29/11:30pm 16.0 SSE 13 17 1019.9 - - - - - - - - -
29/11:00pm 15.9 SSE 14 19 1020.1 - - - - - - - - -
29/10:30pm 16.1 SSE 15 19 1020.3 - - - - - - - - -
29/10:00pm 16.5 SE 16 21 1020.4 - - - - - - - - -
29/09:30pm 16.5 SE 17 21 1020.3 - - - - - - - - -
29/09:00pm 16.7 SE 18 23 1020.1 - - - - - - - - -
29/08:30pm 16.9 SE 17 23 1020.0 - - - - - - - - -
29/08:00pm 16.9 SE 18 22 1019.9 - - - - - - - - -
29/07:30pm 17.2 ESE 17 22 1019.9 - - - - - - - - -
29/07:00pm 17.2 SE 17 21 1019.8 - - - - - - - - -
29/06:30pm 17.5 ESE 17 21 1019.8 - - - - - - - - -
29/06:00pm 17.5 ESE 17 21 1019.7 - - - - - - - - -
29/05:30pm 17.7 ESE 16 21 1019.7 - - - - - - - - -
29/05:00pm 17.5 ESE 17 21 1020.0 - - - - - - - - -
29/04:30pm 17.6 ESE 17 20 1020.2 - - - - - - - - -
29/04:00pm 17.8 SE 16 21 1020.4 - - - - - - - - -
29/03:30pm 17.8 ESE 16 21 1020.6 - - - - - - - - -
29/03:00pm 17.8 ESE 17 21 1020.8 - - - - - - - - -
29/02:30pm 17.9 ESE 15 18 1021.0 - - - - - - - - -
29/02:00pm 18.3 SE 13 17 1021.2 - - - - - - - - -
29/01:30pm 17.9 SE 14 17 1021.2 - - - - - - - - -
29/01:00pm 17.7 SE 13 16 1021.5 - - - - - - - - -
29/12:30pm 17.4 SE 13 17 1021.9 - - - - - - - - -
29/12:00pm 17.4 SE 12 16 1021.9 - - - - - - - - -
29/11:30am 17.5 SE 12 15 1022.1 - - - - - - - - -
29/11:00am 17.4 SE 11 14 1022.1 - - - - - - - - -
29/10:30am 17.4 SE 12 14 1022.2 - - - - - - - - -
29/10:00am 17.1 SE 12 15 1022.2 - - - - - - - - -
29/09:30am 17.0 SE 12 15 1022.1 - - - - - - - - -
29/09:00am 16.9 SE 11 15 1022.2 - - - - - - - - -
29/08:30am 16.6 SE 10 13 1022.1 - - - - - - - - -
29/08:00am 16.5 SE 11 14 1021.8 - - - - - - - - -
29/07:30am 16.5 SE 10 14 1021.6 - - - - - - - - -
29/07:00am 16.3 SE 11 15 1021.2 - - - - - - - - -
29/06:30am 16.2 SE 11 15 1021.1 - - - - - - - - -
29/06:00am 16.1 SE 12 14 1020.8 - - - - - - - - -
29/05:30am 16.0 SE 12 16 1020.6 - - - - - - - - -
29/05:00am 16.2 SE 13 17 1020.3 - - - - - - - - -
29/04:30am 16.2 ESE 13 17 1020.4 - - - - - - - - -
29/04:00am 16.2 SE 15 18 1020.4 - - - - - - - - -
29/03:30am 16.1 ESE 15 19 1020.3 - - - - - - - - -
29/03:00am 16.3 SE 16 20 1020.5 - - - - - - - - -
29/02:30am 16.3 ESE 16 20 1020.5 - - - - - - - - -
29/02:00am 16.1 SE 16 21 1020.7 - - - - - - - - -
29/01:30am 16.1 SE 17 22 1020.7 - - - - - - - - -
29/01:00am 16.2 SE 17 23 1021.0 - - - - - - - - -
29/12:30am 16.1 SE 17 22 1021.2 - - - - - - - - -
29/12:00am 16.3 SE 18 21 1021.5 - - - - - - - - -
 
Date/Time
CDT
Temp

°C
Wind Pressure Rain
since 9am
mm
Weather Cloud Vis
km
Sea
Height
m
Swell
Dir
 
Speed
knots
Gust
knots
hPa Trend Height
m
Period
s
Dir
28/11:30pm 16.5 SE 18 24 1021.5 - - - - - - - - -
28/11:00pm 16.6 SE 19 23 1021.5 - - - - - - - - -
28/10:30pm 16.8 SE 19 25 1021.5 - - - - - - - - -
28/10:00pm 16.8 SE 20 26 1021.5 - - - - - - - - -
28/09:30pm 16.9 SE 21 27 1021.4 - - - - - - - - -
28/09:00pm 17.2 SE 20 27 1020.9 - - - - - - - - -
28/08:30pm 17.3 SE 19 25 1020.8 - - - - - - - - -
28/08:00pm 17.4 SE 21 27 1020.7 - - - - - - - - -
28/07:30pm 17.6 SE 13 21 1020.4 - - - - - - - - -
28/07:00pm 17.7 SE 17 24 1020.1 - - - - - - - - -
28/06:30pm 17.8 SE 17 23 1019.8 - - - - - - - - -
28/06:00pm 17.8 SE 15 23 1019.8 - - - - - - - - -
28/05:30pm 17.9 SE 17 25 1019.7 - - - - - - - - -
28/05:05pm 17.9 SE 16 26 1019.7 - - - - - - - - -
28/05:00pm 17.9 SE 15 25 1019.6 - - - - - - - - -
28/04:32pm 18.0 SE 18 28 1019.7 - - - - - - - - -
28/04:30pm 18.0 SE 19 28 1019.7 - - - - - - - - -
28/04:00pm 18.0 SE 19 27 1019.5 - - - - - - - - -
28/03:30pm 18.1 SE 21 28 1019.7 - - - - - - - - -
28/03:00pm 18.0 SE 19 26 1019.9 - - - - - - - - -
28/02:38pm 17.9 SE 18 29 1019.7 - - - - - - - - -
28/02:30pm 17.9 SE 19 27 1019.8 - - - - - - - - -

Other Formats:

Comma delimited format used in spreadsheet applications
http://www.bom.gov.au/fwo/IDS60701/IDS60701.95826.axf

JavaScript Object Notation format (JSON) in row-major order
http://www.bom.gov.au/fwo/IDS60701/IDS60701.95826.json